Disclaimer

Please do not use the information listed here in-flight or in-navigation, as they are not provided to us by the airports but are provided by volunteers, so they might be outdated.

Search


Regions


Airport information page

Radio informations:
TUNIS TWR - 118.1 MHz
TUNIS GND - 121.9 MHz
TUNIS ATIS - 118.675 MHz
TUNIS APP - 121.2 MHz

Airport informations:
Latitude: 36° 51' 03.72" N
Longitude: 010° 13' 37.98" E
Elevation: 22 feet - 7 meters
Operating hours: Remarks
Operating agency: Civil government, landing fees and diplomatic clearance may be required
Timezone: UTC+1(+2DT) - Dates notified by NOTAM
Fuel: Jet A1, without icing nhibitor.

100/130 MIL Spec, low lead, aviation gasoline (BLUE)

Runway information:
01/19 - 10480 x 148 feet< - >3194 x 45 meters
11/29 - 9318 x 148 feet< - >2840 x 45 meters

Recent METARs:
DTTA 181630Z 03005KT 9999 FEW026 13/08 Q1027 NOSIG
DTTA 181700Z 03004KT 9999 FEW026 12/08 Q1027 NOSIG
DTTA 181730Z 02004KT 9999 FEW026 12/09 Q1027 NOSIG

Airport on the map: